createdAt,value
2022-11-02T00:01:21.005Z,77.23
2022-11-02T00:03:48.170Z,77.25
2022-11-02T00:06:15.021Z,77.23
2022-11-02T00:08:41.824Z,77.26
2022-11-02T00:11:09.055Z,77.37
2022-11-02T00:13:36.230Z,77.45
2022-11-02T00:16:05.493Z,77.48
2022-11-02T00:18:34.346Z,77.55
2022-11-02T00:21:01.788Z,77.56
2022-11-02T00:23:29.788Z,77.60
2022-11-02T00:26:02.080Z,77.58
2022-11-02T00:28:30.207Z,77.63
2022-11-02T00:30:57.402Z,77.68
2022-11-02T00:33:24.289Z,77.58
2022-11-02T00:35:52.225Z,77.63
2022-11-02T00:38:19.644Z,77.55
2022-11-02T00:40:46.492Z,77.59
2022-11-02T00:43:13.499Z,77.73
2022-11-02T00:45:41.234Z,77.66
2022-11-02T00:48:08.066Z,77.73
2022-11-02T00:50:35.006Z,77.53
2022-11-02T00:53:01.896Z,77.47
2022-11-02T00:55:28.842Z,77.49
2022-11-02T00:57:56.356Z,77.60
2022-11-02T01:00:23.406Z,77.71
2022-11-02T01:02:50.263Z,77.64
2022-11-02T01:05:17.697Z,77.60
2022-11-02T01:07:44.467Z,77.62
2022-11-02T01:10:11.323Z,77.63
2022-11-02T01:12:39.618Z,77.65
2022-11-02T01:15:08.173Z,77.55
2022-11-02T01:17:35.015Z,77.60
2022-11-02T01:20:02.518Z,77.69
2022-11-02T01:22:29.287Z,77.66
2022-11-02T01:24:56.048Z,77.64
2022-11-02T01:27:23.501Z,77.54
2022-11-02T01:29:50.269Z,77.51
2022-11-02T01:32:17.074Z,77.66
2022-11-02T01:34:43.968Z,77.68
2022-11-02T01:37:10.984Z,77.53
2022-11-02T01:39:37.771Z,77.66
2022-11-02T01:42:16.919Z,77.64
2022-11-02T01:44:43.674Z,77.60
2022-11-02T01:47:19.622Z,77.54
2022-11-02T01:49:50.271Z,77.54
2022-11-02T01:52:25.184Z,77.53
2022-11-02T01:54:57.071Z,77.53
2022-11-02T01:57:26.954Z,77.39
2022-11-02T01:59:53.558Z,77.35
2022-11-02T02:02:23.778Z,77.53
2022-11-02T02:05:02.567Z,77.49
2022-11-02T02:07:31.360Z,77.51
2022-11-02T02:09:59.923Z,77.52
2022-11-02T02:12:28.781Z,77.49
2022-11-02T02:14:55.737Z,77.40
2022-11-02T02:17:34.777Z,77.42
2022-11-02T02:20:01.502Z,77.40
2022-11-02T02:22:51.366Z,77.34
2022-11-02T02:25:36.361Z,77.25
2022-11-02T02:28:06.232Z,77.05
2022-11-02T02:30:40.053Z,76.94
2022-11-02T02:33:23.348Z,76.84
2022-11-02T02:36:15.605Z,76.90
2022-11-02T02:39:11.331Z,77.01
2022-11-02T02:42:22.420Z,76.86
2022-11-02T02:45:11.623Z,76.75
2022-11-02T02:47:46.037Z,76.72
2022-11-02T02:50:27.240Z,76.71
2022-11-02T02:52:56.553Z,76.70
2022-11-02T02:55:29.919Z,76.74
2022-11-02T02:58:00.206Z,76.47
2022-11-02T03:00:27.896Z,76.54
2022-11-02T03:03:01.674Z,76.49
2022-11-02T03:05:34.967Z,76.44
2022-11-02T03:08:10.600Z,76.34
2022-11-02T03:10:47.511Z,76.32
2022-11-02T03:13:41.778Z,76.32
2022-11-02T03:16:37.344Z,76.31
2022-11-02T03:19:18.948Z,76.20
2022-11-02T03:21:54.300Z,76.24
2022-11-02T03:24:41.679Z,76.27
2022-11-02T03:27:46.876Z,76.14
2022-11-02T03:30:19.028Z,76.17
2022-11-02T03:33:08.761Z,76.01
2022-11-02T03:36:01.470Z,76.06
2022-11-02T03:38:51.786Z,76.11
2022-11-02T03:41:21.773Z,76.17
2022-11-02T03:43:53.303Z,76.09
2022-11-02T03:46:22.237Z,75.98
2022-11-02T03:48:50.990Z,76.01
2022-11-02T03:51:22.019Z,75.94
2022-11-02T03:53:58.388Z,75.90
2022-11-02T03:56:31.598Z,75.87
2022-11-02T03:58:58.657Z,76.09
2022-11-02T04:01:27.252Z,76.03
2022-11-02T04:03:54.265Z,75.84
2022-11-02T04:06:21.352Z,75.87
2022-11-02T04:08:49.088Z,75.79
2022-11-02T04:11:34.627Z,75.99
2022-11-02T04:14:20.054Z,75.86
2022-11-02T04:16:47.266Z,75.87
2022-11-02T04:19:29.364Z,75.96
2022-11-02T04:22:15.199Z,75.98
2022-11-02T04:25:01.071Z,76.03
2022-11-02T04:27:28.016Z,76.03
2022-11-02T04:29:54.862Z,75.97
2022-11-02T04:32:40.345Z,75.97
2022-11-02T04:35:07.984Z,75.95
2022-11-02T04:38:00.475Z,76.00
2022-11-02T04:40:28.066Z,75.92
2022-11-02T04:42:54.857Z,76.00
2022-11-02T04:45:21.774Z,76.03
2022-11-02T04:47:48.666Z,75.83
2022-11-02T04:50:15.961Z,76.05
2022-11-02T04:52:42.859Z,75.85
2022-11-02T04:55:10.044Z,75.96
2022-11-02T04:57:36.913Z,75.66
2022-11-02T05:00:06.811Z,75.89
2022-11-02T05:02:33.784Z,75.61
2022-11-02T05:05:00.908Z,75.53
2022-11-02T05:07:27.874Z,75.57
2022-11-02T05:09:54.817Z,75.59
2022-11-02T05:12:25.249Z,75.52
2022-11-02T05:14:55.391Z,75.52
2022-11-02T05:17:22.147Z,75.75
2022-11-02T05:19:49.083Z,75.53
2022-11-02T05:22:15.971Z,75.53
2022-11-02T05:24:42.744Z,75.48
2022-11-02T05:27:09.927Z,75.40
2022-11-02T05:29:36.840Z,75.61
2022-11-02T05:32:03.834Z,75.66
2022-11-02T05:34:30.675Z,75.53
2022-11-02T05:36:58.284Z,75.71
2022-11-02T05:39:25.145Z,75.65
2022-11-02T05:41:51.889Z,75.66
2022-11-02T05:44:18.770Z,75.68
2022-11-02T05:46:45.639Z,75.62
2022-11-02T05:49:12.509Z,75.67
2022-11-02T05:51:39.365Z,75.66
2022-11-02T05:54:06.314Z,75.90
2022-11-02T05:56:33.123Z,75.76
2022-11-02T05:58:59.978Z,75.80
2022-11-02T06:01:26.891Z,75.74
2022-11-02T06:03:54.469Z,75.79
2022-11-02T06:06:21.577Z,75.72
2022-11-02T06:08:48.468Z,75.63
2022-11-02T06:11:15.340Z,75.33
2022-11-02T06:13:42.197Z,75.57
2022-11-02T06:16:11.550Z,75.44
2022-11-02T06:18:38.456Z,75.49
2022-11-02T06:21:05.833Z,75.50
2022-11-02T06:23:32.907Z,75.34
2022-11-02T06:26:00.434Z,75.52
2022-11-02T06:28:28.692Z,75.52
2022-11-02T06:30:55.866Z,75.39
2022-11-02T06:33:23.485Z,75.44
2022-11-02T06:35:52.966Z,75.15
2022-11-02T06:38:20.633Z,75.16
2022-11-02T06:40:58.621Z,75.34
2022-11-02T06:43:26.261Z,75.57
2022-11-02T06:45:57.728Z,75.44
2022-11-02T06:48:31.296Z,75.60
2022-11-02T06:51:02.117Z,75.51
2022-11-02T06:53:29.113Z,75.35
2022-11-02T06:55:57.036Z,75.58
2022-11-02T06:58:24.358Z,75.68
2022-11-02T07:00:58.083Z,75.80
2022-11-02T07:03:25.071Z,75.59
2022-11-02T07:05:52.691Z,75.71
2022-11-02T07:08:20.621Z,75.91
2022-11-02T07:10:48.119Z,76.02
2022-11-02T07:13:15.125Z,76.27
2022-11-02T07:15:41.975Z,76.12
2022-11-02T07:18:09.148Z,76.35
2022-11-02T07:20:36.392Z,76.32
2022-11-02T07:23:05.047Z,76.47
2022-11-02T07:25:33.046Z,76.40
2022-11-02T07:28:01.665Z,76.53
2022-11-02T07:30:30.668Z,76.82
2022-11-02T07:32:57.949Z,76.93
2022-11-02T07:35:24.769Z,76.97
2022-11-02T07:38:00.432Z,76.86
2022-11-02T07:40:29.231Z,76.95
2022-11-02T07:42:57.134Z,76.81
2022-11-02T07:45:25.284Z,77.02
2022-11-02T07:47:52.489Z,76.86
2022-11-02T07:50:21.386Z,76.79
2022-11-02T07:52:53.142Z,77.00
2022-11-02T07:55:23.186Z,77.10
2022-11-02T07:57:57.544Z,77.23
2022-11-02T08:00:36.876Z,77.54
2022-11-02T08:03:06.030Z,77.77
2022-11-02T08:05:35.430Z,77.46
2022-11-02T08:08:08.398Z,77.56
2022-11-02T08:10:38.936Z,77.66
2022-11-02T08:13:12.432Z,77.65
2022-11-02T08:15:39.650Z,77.56
2022-11-02T08:18:15.125Z,77.40
2022-11-02T08:20:42.761Z,77.51
2022-11-02T08:23:10.657Z,77.56
2022-11-02T08:25:39.151Z,77.69
2022-11-02T08:28:08.300Z,77.59
2022-11-02T08:30:36.955Z,77.49
2022-11-02T08:33:06.870Z,77.41
2022-11-02T08:35:34.415Z,77.59
2022-11-02T08:38:01.678Z,77.58
2022-11-02T08:40:29.320Z,77.37
2022-11-02T08:43:01.794Z,77.60
2022-11-02T08:45:35.142Z,77.66
2022-11-02T08:48:09.990Z,77.49
2022-11-02T08:50:37.574Z,77.71
2022-11-02T08:53:05.320Z,77.83
2022-11-02T08:55:32.882Z,77.77
2022-11-02T08:58:00.470Z,77.71
2022-11-02T09:00:30.539Z,77.80
2022-11-02T09:03:09.668Z,77.83
2022-11-02T09:05:39.147Z,77.76
2022-11-02T09:08:16.220Z,77.87
2022-11-02T09:10:43.606Z,78.00
2022-11-02T09:13:16.740Z,77.98
2022-11-02T09:15:43.734Z,77.95
2022-11-02T09:18:10.754Z,78.02
2022-11-02T09:20:37.699Z,77.83
2022-11-02T09:23:04.606Z,78.09
2022-11-02T09:25:32.003Z,77.96
2022-11-02T09:27:59.185Z,77.96
2022-11-02T09:30:28.095Z,78.03
2022-11-02T09:33:00.406Z,77.93
2022-11-02T09:35:30.246Z,78.07
2022-11-02T09:37:57.309Z,78.07
2022-11-02T09:40:29.731Z,78.21
2022-11-02T09:43:11.519Z,78.12
2022-11-02T09:46:01.565Z,78.01
2022-11-02T09:48:31.107Z,77.90
2022-11-02T09:51:03.781Z,77.87
2022-11-02T09:53:52.505Z,78.00
2022-11-02T09:56:19.710Z,78.15
2022-11-02T09:58:59.061Z,78.13
2022-11-02T10:01:49.213Z,78.22
2022-11-02T10:04:48.650Z,78.21
2022-11-02T10:07:24.942Z,78.19
2022-11-02T10:10:05.297Z,78.05
2022-11-02T10:12:41.239Z,78.05
2022-11-02T10:15:16.991Z,77.96
2022-11-02T10:17:47.601Z,78.01
2022-11-02T10:20:26.286Z,77.89
2022-11-02T10:23:02.959Z,78.10
2022-11-02T10:25:30.164Z,78.19
2022-11-02T10:28:12.981Z,78.11
2022-11-02T10:30:41.776Z,78.15
2022-11-02T10:33:17.948Z,78.09
2022-11-02T10:36:11.983Z,78.15
2022-11-02T10:38:56.338Z,78.20
2022-11-02T10:41:32.084Z,78.00
2022-11-02T10:44:30.392Z,77.87
2022-11-02T10:46:57.268Z,78.09
2022-11-02T10:49:51.581Z,78.16
2022-11-02T10:52:18.651Z,78.04
2022-11-02T10:54:49.804Z,77.88
2022-11-02T10:57:23.726Z,77.82
2022-11-02T11:00:30.632Z,77.82
2022-11-02T11:03:15.543Z,77.72
2022-11-02T11:05:56.743Z,77.92
2022-11-02T11:08:35.325Z,77.84
2022-11-02T11:11:13.649Z,77.94
2022-11-02T11:16:35.988Z,77.96
2022-11-02T11:21:53.535Z,77.42
2022-11-02T11:24:29.405Z,77.38
2022-11-02T11:27:11.511Z,77.25
2022-11-02T11:29:45.182Z,77.18
2022-11-02T11:32:27.148Z,77.18
2022-11-02T11:35:07.121Z,77.01
2022-11-02T11:37:34.055Z,77.11
2022-11-02T11:40:06.342Z,77.12
2022-11-02T11:42:36.772Z,76.91
2022-11-02T11:45:17.342Z,76.96
2022-11-02T11:47:44.533Z,76.96
2022-11-02T11:50:21.467Z,76.94
2022-11-02T11:53:12.212Z,76.70
2022-11-02T11:55:53.348Z,76.56
2022-11-02T11:58:34.370Z,76.54
2022-11-02T12:01:14.764Z,76.62
2022-11-02T12:03:55.409Z,76.56
2022-11-02T12:06:46.508Z,76.60
2022-11-02T12:09:38.024Z,76.51
2022-11-02T12:12:04.899Z,76.51
2022-11-02T12:14:46.750Z,76.39
2022-11-02T12:17:35.418Z,76.50
2022-11-02T12:20:16.694Z,76.20
2022-11-02T12:22:53.604Z,76.28
2022-11-02T12:25:42.516Z,76.26
2022-11-02T12:28:41.620Z,76.14
2022-11-02T12:31:19.109Z,76.40
2022-11-02T12:34:10.211Z,76.47
2022-11-02T12:37:38.597Z,76.24
2022-11-02T12:40:13.541Z,76.24
2022-11-02T12:43:06.415Z,76.25
2022-11-02T12:45:52.032Z,76.28
2022-11-02T12:48:45.461Z,76.25
2022-11-02T12:51:19.535Z,76.14
2022-11-02T12:53:57.429Z,76.11
2022-11-02T12:56:47.460Z,75.97
2022-11-02T12:59:22.433Z,76.01
2022-11-02T13:01:54.510Z,75.91
2022-11-02T13:04:34.026Z,76.01
2022-11-02T13:07:17.747Z,76.00
2022-11-02T13:10:02.906Z,75.87
2022-11-02T13:12:35.219Z,75.89
2022-11-02T13:15:06.797Z,75.84
2022-11-02T13:17:43.756Z,75.71
2022-11-02T13:20:24.224Z,75.56
2022-11-02T13:23:01.331Z,75.64
2022-11-02T13:25:36.592Z,75.58
2022-11-02T13:28:13.250Z,75.60
2022-11-02T13:30:41.565Z,75.57
2022-11-02T13:33:20.269Z,75.42
2022-11-02T13:35:49.757Z,75.44
2022-11-02T13:38:34.872Z,75.32
2022-11-02T13:41:19.891Z,75.49
2022-11-02T13:43:55.884Z,75.40
2022-11-02T13:46:41.293Z,75.36
2022-11-02T13:49:21.634Z,75.23
2022-11-02T13:51:56.461Z,75.39
2022-11-02T13:54:34.575Z,75.31
2022-11-02T13:57:02.245Z,75.32
2022-11-02T13:59:43.030Z,75.33
2022-11-02T14:02:17.684Z,75.29
2022-11-02T14:04:45.611Z,75.13
2022-11-02T14:07:24.465Z,75.14
2022-11-02T14:09:57.603Z,75.26
2022-11-02T14:12:27.773Z,75.16
2022-11-02T14:15:13.070Z,75.12
2022-11-02T14:18:04.486Z,75.08
2022-11-02T14:20:40.018Z,75.10
2022-11-02T14:23:34.238Z,74.97
2022-11-02T14:26:01.294Z,74.87
2022-11-02T14:28:41.372Z,75.00
2022-11-02T14:31:17.441Z,75.02
2022-11-02T14:34:15.303Z,74.84
2022-11-02T14:37:01.571Z,74.88
2022-11-02T14:40:00.759Z,74.85
2022-11-02T14:42:46.281Z,74.88
2022-11-02T14:45:41.186Z,74.86
2022-11-02T14:48:15.562Z,74.84
2022-11-02T14:51:04.803Z,74.93
2022-11-02T14:53:35.654Z,74.76
2022-11-02T14:56:03.111Z,74.78
2022-11-02T14:58:40.244Z,74.78
2022-11-02T15:01:14.275Z,74.78
2022-11-02T15:03:42.638Z,74.88
2022-11-02T15:06:28.675Z,74.71
2022-11-02T15:09:03.543Z,74.76
2022-11-02T15:12:13.322Z,74.86
2022-11-02T15:14:48.219Z,74.82
2022-11-02T15:17:15.361Z,74.87
2022-11-02T15:19:45.831Z,74.87
2022-11-02T15:22:37.584Z,74.81
2022-11-02T15:25:25.018Z,74.80
2022-11-02T15:28:02.758Z,74.76
2022-11-02T15:30:32.166Z,74.90
2022-11-02T15:33:06.374Z,74.67
2022-11-02T15:35:36.718Z,74.70
2022-11-02T15:38:29.538Z,74.73
2022-11-02T15:41:21.092Z,74.61
2022-11-02T15:44:14.771Z,74.56
2022-11-02T15:46:48.555Z,74.59
2022-11-02T15:49:27.306Z,74.80
2022-11-02T15:52:15.297Z,74.96
2022-11-02T15:54:51.264Z,75.00
2022-11-02T15:57:30.034Z,75.11
2022-11-02T16:00:18.284Z,75.19
2022-11-02T16:06:07.611Z,75.53
2022-11-02T16:08:37.545Z,75.50
2022-11-02T16:11:27.525Z,75.63
2022-11-02T16:14:14.119Z,75.74
2022-11-02T16:16:49.227Z,75.82
2022-11-02T16:19:20.679Z,75.91
2022-11-02T16:21:50.738Z,75.86
2022-11-02T16:24:19.342Z,75.92
2022-11-02T16:26:50.106Z,75.95
2022-11-02T16:29:38.962Z,76.04
2022-11-02T16:32:10.872Z,75.97
2022-11-02T16:34:39.929Z,75.83
2022-11-02T16:37:12.589Z,75.81
2022-11-02T16:39:45.232Z,75.72
2022-11-02T16:42:22.746Z,75.81
2022-11-02T16:44:59.053Z,75.54
2022-11-02T16:47:40.065Z,75.26
2022-11-02T16:50:33.486Z,75.18
2022-11-02T16:53:02.101Z,75.61
2022-11-02T16:55:47.259Z,76.02
2022-11-02T16:58:23.676Z,75.94
2022-11-02T17:01:04.720Z,75.86
2022-11-02T17:03:33.967Z,75.84
2022-11-02T17:06:05.674Z,75.93
2022-11-02T17:08:35.050Z,75.89
2022-11-02T17:11:05.137Z,76.00
2022-11-02T17:13:36.107Z,75.97
2022-11-02T17:16:10.275Z,76.02
2022-11-02T17:18:38.092Z,76.04
2022-11-02T17:21:26.397Z,75.93
2022-11-02T17:23:54.760Z,76.06
2022-11-02T17:26:21.841Z,76.15
2022-11-02T17:28:50.891Z,76.05
2022-11-02T17:31:25.264Z,76.08
2022-11-02T17:33:53.744Z,76.09
2022-11-02T17:36:21.492Z,76.11
2022-11-02T17:38:48.537Z,76.01
2022-11-02T17:41:36.100Z,76.17
2022-11-02T17:44:03.745Z,76.10
2022-11-02T17:46:31.344Z,75.96
2022-11-02T17:48:58.386Z,75.94
2022-11-02T17:51:25.568Z,75.87
2022-11-02T17:53:53.722Z,75.90
2022-11-02T17:56:20.893Z,75.86
2022-11-02T17:58:48.027Z,75.86
2022-11-02T18:01:16.492Z,75.82
2022-11-02T18:03:46.501Z,75.75
2022-11-02T18:06:13.671Z,75.83
2022-11-02T18:08:59.186Z,75.74
2022-11-02T18:11:26.788Z,75.89
2022-11-02T18:13:53.812Z,75.68
2022-11-02T18:16:20.851Z,75.77
2022-11-02T18:18:47.871Z,75.64
2022-11-02T18:21:14.868Z,75.57
2022-11-02T18:23:41.779Z,75.71
2022-11-02T18:26:11.396Z,75.78
2022-11-02T18:28:38.757Z,75.82
2022-11-02T18:31:06.566Z,75.76
2022-11-02T18:33:33.986Z,75.75
2022-11-02T18:36:06.272Z,75.70
2022-11-02T18:38:33.779Z,75.62
2022-11-02T18:41:26.811Z,75.64
2022-11-02T18:44:03.835Z,75.53
2022-11-02T18:46:33.418Z,75.81
2022-11-02T18:49:00.358Z,75.78
2022-11-02T18:51:27.661Z,75.60
2022-11-02T18:53:56.875Z,75.90
2022-11-02T18:56:24.330Z,75.95
2022-11-02T18:58:52.561Z,75.57
2022-11-02T19:01:23.660Z,75.62
2022-11-02T19:03:58.885Z,75.79
2022-11-02T19:06:46.194Z,75.63
2022-11-02T19:09:17.830Z,75.73
2022-11-02T19:11:56.116Z,75.81
2022-11-02T19:14:23.801Z,75.88
2022-11-02T19:16:50.829Z,75.88
2022-11-02T19:19:17.840Z,75.80
2022-11-02T19:21:45.021Z,75.92
2022-11-02T19:24:12.123Z,75.90
2022-11-02T19:26:39.437Z,75.76
2022-11-02T19:29:06.947Z,75.80
2022-11-02T19:31:35.136Z,75.68
2022-11-02T19:34:02.913Z,75.71
2022-11-02T19:36:30.556Z,75.71
2022-11-02T19:38:59.495Z,75.61
2022-11-02T19:41:26.490Z,75.67
2022-11-02T19:43:53.707Z,75.71
2022-11-02T19:46:21.937Z,75.68
2022-11-02T19:48:49.892Z,75.61
2022-11-02T19:51:26.227Z,75.56
2022-11-02T19:53:55.648Z,75.49
2022-11-02T19:56:22.808Z,75.63
2022-11-02T19:58:51.375Z,75.62
2022-11-02T20:01:30.960Z,75.43
2022-11-02T20:03:58.505Z,75.47
2022-11-02T20:06:27.369Z,75.57
2022-11-02T20:08:58.389Z,75.61
2022-11-02T20:11:29.136Z,75.47
2022-11-02T20:13:58.590Z,75.64
2022-11-02T20:16:25.689Z,75.65
2022-11-02T20:18:54.595Z,75.41
2022-11-02T20:21:29.892Z,75.56
2022-11-02T20:24:00.346Z,75.52
2022-11-02T20:26:30.785Z,75.47
2022-11-02T20:28:59.832Z,75.57
2022-11-02T20:31:38.510Z,75.56
2022-11-02T20:34:07.693Z,75.64
2022-11-02T20:36:35.094Z,75.56
2022-11-02T20:39:06.957Z,75.40
2022-11-02T20:41:34.030Z,75.41
2022-11-02T20:44:01.145Z,75.37
2022-11-02T20:46:40.097Z,75.68
2022-11-02T20:49:21.612Z,75.48
2022-11-02T20:51:57.025Z,75.48
2022-11-02T20:54:24.629Z,75.55
2022-11-02T20:56:52.138Z,75.47
2022-11-02T20:59:19.042Z,75.53
2022-11-02T21:01:46.254Z,75.44
2022-11-02T21:04:19.867Z,75.36
2022-11-02T21:06:49.303Z,75.47
2022-11-02T21:09:16.952Z,75.34
2022-11-02T21:12:02.275Z,75.28
2022-11-02T21:14:29.369Z,75.41
2022-11-02T21:16:56.500Z,75.30
2022-11-02T21:19:23.824Z,75.40
2022-11-02T21:21:55.083Z,75.66
2022-11-02T21:24:25.359Z,75.43
2022-11-02T21:26:52.238Z,75.57
2022-11-02T21:29:20.475Z,75.52
2022-11-02T21:31:47.843Z,75.33
2022-11-02T21:34:15.098Z,75.32
2022-11-02T21:36:42.049Z,75.46
2022-11-02T21:39:09.051Z,75.63
2022-11-02T21:41:37.972Z,75.29
2022-11-02T21:44:07.428Z,75.29
2022-11-02T21:46:35.062Z,75.33
2022-11-02T21:49:02.406Z,75.44
2022-11-02T21:51:29.887Z,75.27
2022-11-02T21:53:57.080Z,75.39
2022-11-02T21:56:29.110Z,75.59
2022-11-02T21:58:56.362Z,75.10
2022-11-02T22:01:44.064Z,75.31
2022-11-02T22:04:24.932Z,75.20
2022-11-02T22:06:52.770Z,75.18
2022-11-02T22:09:20.387Z,75.13
2022-11-02T22:11:48.159Z,75.41
2022-11-02T22:14:15.299Z,75.34
2022-11-02T22:16:43.001Z,75.38
2022-11-02T22:19:12.361Z,75.26
2022-11-02T22:21:44.658Z,75.39
2022-11-02T22:24:32.950Z,75.48
2022-11-02T22:42:18.996Z,75.64
2022-11-02T22:45:38.847Z,75.30
2022-11-02T22:48:06.141Z,75.45
2022-11-02T22:50:33.350Z,75.52
2022-11-02T22:53:01.419Z,75.45
2022-11-02T22:55:30.968Z,75.37
2022-11-02T22:57:59.917Z,75.37
2022-11-02T23:00:27.350Z,75.12
2022-11-02T23:03:10.583Z,75.17
2022-11-02T23:05:41.408Z,75.20
2022-11-02T23:08:37.483Z,75.27
2022-11-02T23:11:21.460Z,74.87
2022-11-02T23:13:53.495Z,74.91
2022-11-02T23:16:26.337Z,75.02
2022-11-02T23:19:29.029Z,74.98
2022-11-02T23:22:20.282Z,74.85
2022-11-02T23:25:06.448Z,75.02
2022-11-02T23:27:55.630Z,75.13
2022-11-02T23:30:42.016Z,74.99
2022-11-02T23:33:09.274Z,74.88
2022-11-02T23:35:55.135Z,75.10
2022-11-02T23:38:22.270Z,75.26
2022-11-02T23:40:54.052Z,75.22
2022-11-02T23:43:20.968Z,75.00
2022-11-02T23:45:47.883Z,74.87
2022-11-02T23:51:06.041Z,74.84
2022-11-02T23:53:51.494Z,74.89
2022-11-02T23:56:36.917Z,74.86
2022-11-02T23:59:06.935Z,75.05
